sensor_id;sensor_type;location;lat;lon;timestamp;P1;durP1;ratioP1;P2;durP2;ratioP2
21943;SDS011;11136;48.778;9.126;2023-06-26T00:02:11;7.72;;;5.60;;
21943;SDS011;11136;48.778;9.126;2023-06-26T00:04:38;7.13;;;5.90;;
21943;SDS011;11136;48.778;9.126;2023-06-26T00:07:04;8.43;;;5.60;;
21943;SDS011;11136;48.778;9.126;2023-06-26T00:09:29;8.10;;;6.47;;
21943;SDS011;11136;48.778;9.126;2023-06-26T00:11:55;7.82;;;6.22;;
21943;SDS011;11136;48.778;9.126;2023-06-26T00:14:21;6.50;;;5.47;;
21943;SDS011;11136;48.778;9.126;2023-06-26T00:16:47;8.02;;;5.93;;
21943;SDS011;11136;48.778;9.126;2023-06-26T00:19:14;8.15;;;6.55;;
21943;SDS011;11136;48.778;9.126;2023-06-26T00:21:40;9.82;;;6.15;;
21943;SDS011;11136;48.778;9.126;2023-06-26T00:24:11;6.88;;;5.65;;
21943;SDS011;11136;48.778;9.126;2023-06-26T00:26:37;7.43;;;6.07;;
21943;SDS011;11136;48.778;9.126;2023-06-26T00:29:03;7.80;;;5.95;;
21943;SDS011;11136;48.778;9.126;2023-06-26T00:31:28;7.88;;;6.05;;
21943;SDS011;11136;48.778;9.126;2023-06-26T00:33:54;10.32;;;6.50;;
21943;SDS011;11136;48.778;9.126;2023-06-26T00:36:21;9.57;;;6.30;;
21943;SDS011;11136;48.778;9.126;2023-06-26T00:38:49;9.77;;;5.95;;
21943;SDS011;11136;48.778;9.126;2023-06-26T00:41:15;8.85;;;6.15;;
21943;SDS011;11136;48.778;9.126;2023-06-26T00:43:41;7.43;;;6.03;;
21943;SDS011;11136;48.778;9.126;2023-06-26T00:46:08;7.57;;;5.88;;
21943;SDS011;11136;48.778;9.126;2023-06-26T00:48:36;8.73;;;6.07;;
21943;SDS011;11136;48.778;9.126;2023-06-26T00:51:03;7.28;;;5.78;;
21943;SDS011;11136;48.778;9.126;2023-06-26T00:53:29;8.25;;;5.85;;
21943;SDS011;11136;48.778;9.126;2023-06-26T00:55:56;8.43;;;5.90;;
21943;SDS011;11136;48.778;9.126;2023-06-26T00:58:22;7.65;;;5.80;;
21943;SDS011;11136;48.778;9.126;2023-06-26T01:00:50;8.25;;;5.78;;
21943;SDS011;11136;48.778;9.126;2023-06-26T01:03:16;7.20;;;5.85;;
21943;SDS011;11136;48.778;9.126;2023-06-26T01:05:43;10.40;;;6.55;;
21943;SDS011;11136;48.778;9.126;2023-06-26T01:08:11;7.50;;;5.43;;
21943;SDS011;11136;48.778;9.126;2023-06-26T01:10:38;9.98;;;6.32;;
21943;SDS011;11136;48.778;9.126;2023-06-26T01:13:04;7.72;;;6.05;;
21943;SDS011;11136;48.778;9.126;2023-06-26T01:15:30;6.75;;;5.25;;
21943;SDS011;11136;48.778;9.126;2023-06-26T01:17:56;7.88;;;6.47;;
21943;SDS011;11136;48.778;9.126;2023-06-26T01:20:28;8.57;;;6.25;;
21943;SDS011;11136;48.778;9.126;2023-06-26T01:23:07;8.90;;;6.45;;
21943;SDS011;11136;48.778;9.126;2023-06-26T01:26:12;8.43;;;5.95;;
21943;SDS011;11136;48.778;9.126;2023-06-26T01:28:41;9.45;;;6.25;;
21943;SDS011;11136;48.778;9.126;2023-06-26T01:31:08;6.88;;;6.00;;
21943;SDS011;11136;48.778;9.126;2023-06-26T01:33:35;8.27;;;6.15;;
21943;SDS011;11136;48.778;9.126;2023-06-26T01:36:02;7.22;;;6.07;;
21943;SDS011;11136;48.778;9.126;2023-06-26T01:38:28;7.57;;;5.10;;
21943;SDS011;11136;48.778;9.126;2023-06-26T01:40:54;8.63;;;6.22;;
21943;SDS011;11136;48.778;9.126;2023-06-26T01:46:49;6.35;;;5.47;;
21943;SDS011;11136;48.778;9.126;2023-06-26T01:49:25;7.10;;;5.93;;
21943;SDS011;11136;48.778;9.126;2023-06-26T01:58:01;7.50;;;6.25;;
21943;SDS011;11136;48.778;9.126;2023-06-26T02:00:27;7.03;;;5.88;;
21943;SDS011;11136;48.778;9.126;2023-06-26T02:02:54;8.43;;;5.53;;
21943;SDS011;11136;48.778;9.126;2023-06-26T02:05:19;7.22;;;6.00;;
21943;SDS011;11136;48.778;9.126;2023-06-26T02:07:45;6.40;;;5.50;;
21943;SDS011;11136;48.778;9.126;2023-06-26T02:10:11;7.55;;;5.88;;
21943;SDS011;11136;48.778;9.126;2023-06-26T02:12:36;10.43;;;6.20;;
21943;SDS011;11136;48.778;9.126;2023-06-26T02:15:03;6.82;;;5.75;;
21943;SDS011;11136;48.778;9.126;2023-06-26T02:17:29;6.82;;;5.13;;
21943;SDS011;11136;48.778;9.126;2023-06-26T02:19:55;7.88;;;7.00;;
21943;SDS011;11136;48.778;9.126;2023-06-26T02:22:21;8.77;;;6.10;;
21943;SDS011;11136;48.778;9.126;2023-06-26T02:24:47;8.50;;;6.18;;
21943;SDS011;11136;48.778;9.126;2023-06-26T02:27:12;7.15;;;5.80;;
21943;SDS011;11136;48.778;9.126;2023-06-26T02:29:38;9.02;;;6.40;;
21943;SDS011;11136;48.778;9.126;2023-06-26T02:32:05;9.23;;;6.57;;
21943;SDS011;11136;48.778;9.126;2023-06-26T02:34:31;8.38;;;5.43;;
21943;SDS011;11136;48.778;9.126;2023-06-26T02:36:56;7.07;;;6.05;;
21943;SDS011;11136;48.778;9.126;2023-06-26T02:39:23;9.95;;;7.07;;
21943;SDS011;11136;48.778;9.126;2023-06-26T02:41:49;10.55;;;6.35;;
21943;SDS011;11136;48.778;9.126;2023-06-26T02:44:14;10.43;;;6.40;;
21943;SDS011;11136;48.778;9.126;2023-06-26T02:46:40;7.88;;;5.93;;
21943;SDS011;11136;48.778;9.126;2023-06-26T02:49:06;9.25;;;6.00;;
21943;SDS011;11136;48.778;9.126;2023-06-26T02:51:32;7.43;;;5.95;;
21943;SDS011;11136;48.778;9.126;2023-06-26T02:53:58;9.63;;;6.32;;
21943;SDS011;11136;48.778;9.126;2023-06-26T02:56:24;7.80;;;5.75;;
21943;SDS011;11136;48.778;9.126;2023-06-26T02:58:54;7.38;;;5.75;;
21943;SDS011;11136;48.778;9.126;2023-06-26T03:01:22;7.65;;;5.80;;
21943;SDS011;11136;48.778;9.126;2023-06-26T03:03:48;7.47;;;5.95;;
21943;SDS011;11136;48.778;9.126;2023-06-26T03:06:14;8.52;;;5.78;;
21943;SDS011;11136;48.778;9.126;2023-06-26T03:08:39;8.77;;;6.25;;
21943;SDS011;11136;48.778;9.126;2023-06-26T03:11:08;8.40;;;6.10;;
21943;SDS011;11136;48.778;9.126;2023-06-26T03:13:35;7.40;;;6.03;;
21943;SDS011;11136;48.778;9.126;2023-06-26T03:16:01;8.07;;;5.57;;
21943;SDS011;11136;48.778;9.126;2023-06-26T03:18:27;9.68;;;6.90;;
21943;SDS011;11136;48.778;9.126;2023-06-26T03:20:53;6.43;;;5.50;;
21943;SDS011;11136;48.778;9.126;2023-06-26T03:23:20;9.38;;;6.15;;
21943;SDS011;11136;48.778;9.126;2023-06-26T03:25:46;9.32;;;6.28;;
21943;SDS011;11136;48.778;9.126;2023-06-26T03:28:12;7.05;;;5.78;;
21943;SDS011;11136;48.778;9.126;2023-06-26T03:30:38;6.85;;;5.50;;
21943;SDS011;11136;48.778;9.126;2023-06-26T03:33:03;8.07;;;5.80;;
21943;SDS011;11136;48.778;9.126;2023-06-26T03:35:29;7.85;;;5.80;;
21943;SDS011;11136;48.778;9.126;2023-06-26T03:37:54;9.02;;;6.10;;
21943;SDS011;11136;48.778;9.126;2023-06-26T03:40:20;9.77;;;5.45;;
21943;SDS011;11136;48.778;9.126;2023-06-26T03:42:46;9.07;;;6.57;;
21943;SDS011;11136;48.778;9.126;2023-06-26T03:45:11;8.20;;;6.05;;
21943;SDS011;11136;48.778;9.126;2023-06-26T03:47:37;7.55;;;5.10;;
21943;SDS011;11136;48.778;9.126;2023-06-26T03:50:02;10.85;;;6.95;;
21943;SDS011;11136;48.778;9.126;2023-06-26T03:52:28;7.68;;;6.13;;
21943;SDS011;11136;48.778;9.126;2023-06-26T03:54:56;9.50;;;6.30;;
21943;SDS011;11136;48.778;9.126;2023-06-26T03:57:22;9.40;;;6.00;;
21943;SDS011;11136;48.778;9.126;2023-06-26T03:59:48;9.63;;;5.75;;
21943;SDS011;11136;48.778;9.126;2023-06-26T04:02:14;8.48;;;6.38;;
21943;SDS011;11136;48.778;9.126;2023-06-26T04:04:39;8.63;;;6.53;;
21943;SDS011;11136;48.778;9.126;2023-06-26T04:07:05;8.05;;;5.68;;
21943;SDS011;11136;48.778;9.126;2023-06-26T04:09:30;9.57;;;6.10;;
21943;SDS011;11136;48.778;9.126;2023-06-26T04:11:56;7.75;;;5.55;;
21943;SDS011;11136;48.778;9.126;2023-06-26T04:14:22;8.63;;;5.97;;
21943;SDS011;11136;48.778;9.126;2023-06-26T04:16:47;9.02;;;5.78;;
21943;SDS011;11136;48.778;9.126;2023-06-26T04:19:13;9.88;;;6.20;;
21943;SDS011;11136;48.778;9.126;2023-06-26T04:21:38;7.53;;;5.97;;
21943;SDS011;11136;48.778;9.126;2023-06-26T04:24:04;7.70;;;5.90;;
21943;SDS011;11136;48.778;9.126;2023-06-26T04:26:30;6.65;;;5.47;;
21943;SDS011;11136;48.778;9.126;2023-06-26T04:28:55;8.18;;;5.70;;
21943;SDS011;11136;48.778;9.126;2023-06-26T04:31:21;6.80;;;5.38;;
21943;SDS011;11136;48.778;9.126;2023-06-26T04:33:47;8.90;;;5.88;;
21943;SDS011;11136;48.778;9.126;2023-06-26T04:36:16;8.00;;;5.80;;
21943;SDS011;11136;48.778;9.126;2023-06-26T04:38:42;8.73;;;5.18;;
21943;SDS011;11136;48.778;9.126;2023-06-26T04:41:07;8.05;;;5.35;;
21943;SDS011;11136;48.778;9.126;2023-06-26T04:43:33;9.52;;;5.95;;
21943;SDS011;11136;48.778;9.126;2023-06-26T04:45:59;7.22;;;5.53;;
21943;SDS011;11136;48.778;9.126;2023-06-26T04:48:24;10.70;;;5.78;;
21943;SDS011;11136;48.778;9.126;2023-06-26T04:50:52;7.45;;;5.43;;
21943;SDS011;11136;48.778;9.126;2023-06-26T04:53:19;6.95;;;5.25;;
21943;SDS011;11136;48.778;9.126;2023-06-26T04:55:46;7.63;;;5.22;;
21943;SDS011;11136;48.778;9.126;2023-06-26T04:58:11;7.20;;;5.55;;
21943;SDS011;11136;48.778;9.126;2023-06-26T05:00:37;9.77;;;5.93;;
21943;SDS011;11136;48.778;9.126;2023-06-26T05:03:02;8.25;;;5.25;;
21943;SDS011;11136;48.778;9.126;2023-06-26T05:05:28;10.43;;;5.50;;
21943;SDS011;11136;48.778;9.126;2023-06-26T05:07:54;9.25;;;6.13;;
21943;SDS011;11136;48.778;9.126;2023-06-26T05:10:20;8.85;;;5.55;;
21943;SDS011;11136;48.778;9.126;2023-06-26T05:12:46;7.03;;;5.50;;
21943;SDS011;11136;48.778;9.126;2023-06-26T05:15:12;6.50;;;5.38;;
21943;SDS011;11136;48.778;9.126;2023-06-26T05:17:38;9.68;;;5.28;;
21943;SDS011;11136;48.778;9.126;2023-06-26T05:20:04;8.23;;;5.70;;
21943;SDS011;11136;48.778;9.126;2023-06-26T05:22:31;8.82;;;5.55;;
21943;SDS011;11136;48.778;9.126;2023-06-26T05:24:58;7.78;;;5.50;;
21943;SDS011;11136;48.778;9.126;2023-06-26T05:27:26;8.43;;;5.78;;
21943;SDS011;11136;48.778;9.126;2023-06-26T05:29:51;7.18;;;5.75;;
21943;SDS011;11136;48.778;9.126;2023-06-26T05:32:17;7.72;;;5.63;;
21943;SDS011;11136;48.778;9.126;2023-06-26T05:34:49;8.77;;;5.53;;
21943;SDS011;11136;48.778;9.126;2023-06-26T05:37:20;7.13;;;5.63;;
21943;SDS011;11136;48.778;9.126;2023-06-26T05:39:47;7.87;;;5.60;;
21943;SDS011;11136;48.778;9.126;2023-06-26T05:42:13;9.88;;;5.53;;
21943;SDS011;11136;48.778;9.126;2023-06-26T05:44:39;8.43;;;5.10;;
21943;SDS011;11136;48.778;9.126;2023-06-26T05:47:04;9.20;;;5.47;;
21943;SDS011;11136;48.778;9.126;2023-06-26T05:49:30;8.80;;;5.40;;
21943;SDS011;11136;48.778;9.126;2023-06-26T05:51:55;10.38;;;5.95;;
21943;SDS011;11136;48.778;9.126;2023-06-26T05:54:22;9.57;;;5.70;;
21943;SDS011;11136;48.778;9.126;2023-06-26T05:56:48;8.68;;;5.70;;
21943;SDS011;11136;48.778;9.126;2023-06-26T05:59:17;6.90;;;5.07;;
21943;SDS011;11136;48.778;9.126;2023-06-26T06:01:44;7.72;;;5.30;;
21943;SDS011;11136;48.778;9.126;2023-06-26T06:04:09;5.78;;;4.82;;
21943;SDS011;11136;48.778;9.126;2023-06-26T06:06:35;7.28;;;5.00;;
21943;SDS011;11136;48.778;9.126;2023-06-26T06:09:00;7.45;;;5.35;;
21943;SDS011;11136;48.778;9.126;2023-06-26T06:11:26;6.03;;;5.13;;
21943;SDS011;11136;48.778;9.126;2023-06-26T06:13:51;7.55;;;5.10;;
21943;SDS011;11136;48.778;9.126;2023-06-26T06:16:18;8.02;;;5.32;;
21943;SDS011;11136;48.778;9.126;2023-06-26T06:18:43;5.90;;;4.72;;
21943;SDS011;11136;48.778;9.126;2023-06-26T06:21:09;6.75;;;5.38;;
21943;SDS011;11136;48.778;9.126;2023-06-26T06:23:35;8.55;;;5.50;;
21943;SDS011;11136;48.778;9.126;2023-06-26T06:26:01;8.40;;;5.00;;
21943;SDS011;11136;48.778;9.126;2023-06-26T06:28:27;8.48;;;5.10;;
21943;SDS011;11136;48.778;9.126;2023-06-26T06:30:52;6.53;;;4.75;;
21943;SDS011;11136;48.778;9.126;2023-06-26T06:33:18;6.68;;;5.57;;
21943;SDS011;11136;48.778;9.126;2023-06-26T06:35:43;7.85;;;4.75;;
21943;SDS011;11136;48.778;9.126;2023-06-26T06:38:09;7.28;;;4.50;;
21943;SDS011;11136;48.778;9.126;2023-06-26T06:40:35;8.23;;;5.18;;
21943;SDS011;11136;48.778;9.126;2023-06-26T06:43:00;5.95;;;5.03;;
21943;SDS011;11136;48.778;9.126;2023-06-26T06:45:26;6.07;;;4.97;;
21943;SDS011;11136;48.778;9.126;2023-06-26T06:47:51;6.25;;;5.30;;
21943;SDS011;11136;48.778;9.126;2023-06-26T06:50:17;6.78;;;4.57;;
21943;SDS011;11136;48.778;9.126;2023-06-26T06:52:43;6.75;;;5.25;;
21943;SDS011;11136;48.778;9.126;2023-06-26T06:55:08;10.10;;;4.75;;
21943;SDS011;11136;48.778;9.126;2023-06-26T06:57:35;8.18;;;4.60;;
21943;SDS011;11136;48.778;9.126;2023-06-26T07:00:06;9.60;;;5.15;;
21943;SDS011;11136;48.778;9.126;2023-06-26T07:02:34;6.95;;;4.97;;
21943;SDS011;11136;48.778;9.126;2023-06-26T07:05:04;5.93;;;4.80;;
21943;SDS011;11136;48.778;9.126;2023-06-26T07:07:31;9.48;;;5.35;;
21943;SDS011;11136;48.778;9.126;2023-06-26T07:10:01;6.68;;;4.97;;
21943;SDS011;11136;48.778;9.126;2023-06-26T07:12:28;5.25;;;4.40;;
21943;SDS011;11136;48.778;9.126;2023-06-26T07:14:55;10.75;;;5.13;;
21943;SDS011;11136;48.778;9.126;2023-06-26T07:17:21;7.25;;;5.47;;
21943;SDS011;11136;48.778;9.126;2023-06-26T07:19:47;5.45;;;4.63;;
21943;SDS011;11136;48.778;9.126;2023-06-26T07:22:13;6.18;;;4.47;;
21943;SDS011;11136;48.778;9.126;2023-06-26T07:24:39;5.95;;;4.60;;
21943;SDS011;11136;48.778;9.126;2023-06-26T07:27:05;5.55;;;4.63;;
21943;SDS011;11136;48.778;9.126;2023-06-26T07:29:30;9.73;;;4.65;;
21943;SDS011;11136;48.778;9.126;2023-06-26T07:31:56;6.38;;;4.50;;
21943;SDS011;11136;48.778;9.126;2023-06-26T07:34:21;9.40;;;5.32;;
21943;SDS011;11136;48.778;9.126;2023-06-26T07:36:47;7.80;;;4.82;;
21943;SDS011;11136;48.778;9.126;2023-06-26T07:39:13;6.85;;;5.00;;
21943;SDS011;11136;48.778;9.126;2023-06-26T07:41:39;6.45;;;4.30;;
21943;SDS011;11136;48.778;9.126;2023-06-26T07:44:05;5.97;;;4.57;;
21943;SDS011;11136;48.778;9.126;2023-06-26T07:46:30;7.90;;;5.40;;
21943;SDS011;11136;48.778;9.126;2023-06-26T07:48:56;8.30;;;5.18;;
21943;SDS011;11136;48.778;9.126;2023-06-26T07:51:21;7.55;;;4.50;;
21943;SDS011;11136;48.778;9.126;2023-06-26T07:53:47;7.85;;;5.15;;
21943;SDS011;11136;48.778;9.126;2023-06-26T07:56:13;10.63;;;4.22;;
21943;SDS011;11136;48.778;9.126;2023-06-26T07:58:38;6.97;;;4.57;;
21943;SDS011;11136;48.778;9.126;2023-06-26T08:01:04;8.07;;;4.60;;
21943;SDS011;11136;48.778;9.126;2023-06-26T08:03:29;5.47;;;4.07;;
21943;SDS011;11136;48.778;9.126;2023-06-26T08:05:55;6.63;;;4.53;;
21943;SDS011;11136;48.778;9.126;2023-06-26T08:08:20;5.22;;;4.38;;
21943;SDS011;11136;48.778;9.126;2023-06-26T08:10:46;4.80;;;4.15;;
21943;SDS011;11136;48.778;9.126;2023-06-26T08:13:12;8.77;;;4.70;;
21943;SDS011;11136;48.778;9.126;2023-06-26T08:15:37;6.20;;;4.13;;
21943;SDS011;11136;48.778;9.126;2023-06-26T08:18:04;9.48;;;4.68;;
21943;SDS011;11136;48.778;9.126;2023-06-26T08:20:29;11.57;;;5.18;;
21943;SDS011;11136;48.778;9.126;2023-06-26T08:22:55;8.05;;;4.45;;
21943;SDS011;11136;48.778;9.126;2023-06-26T08:25:20;5.93;;;3.85;;
21943;SDS011;11136;48.778;9.126;2023-06-26T08:27:46;6.68;;;4.07;;
21943;SDS011;11136;48.778;9.126;2023-06-26T08:30:12;5.75;;;4.72;;
21943;SDS011;11136;48.778;9.126;2023-06-26T08:32:38;4.63;;;4.07;;
21943;SDS011;11136;48.778;9.126;2023-06-26T08:35:05;9.18;;;4.60;;
21943;SDS011;11136;48.778;9.126;2023-06-26T08:37:31;5.93;;;4.45;;
21943;SDS011;11136;48.778;9.126;2023-06-26T08:39:57;10.07;;;4.45;;
21943;SDS011;11136;48.778;9.126;2023-06-26T08:42:26;7.65;;;4.25;;
21943;SDS011;11136;48.778;9.126;2023-06-26T08:44:52;8.10;;;4.38;;
21943;SDS011;11136;48.778;9.126;2023-06-26T08:47:17;6.53;;;4.38;;
21943;SDS011;11136;48.778;9.126;2023-06-26T08:49:56;8.30;;;4.47;;
21943;SDS011;11136;48.778;9.126;2023-06-26T08:52:36;7.90;;;4.43;;
21943;SDS011;11136;48.778;9.126;2023-06-26T08:55:09;6.10;;;4.65;;
21943;SDS011;11136;48.778;9.126;2023-06-26T08:57:39;6.45;;;4.10;;
21943;SDS011;11136;48.778;9.126;2023-06-26T09:00:05;5.50;;;4.13;;
21943;SDS011;11136;48.778;9.126;2023-06-26T09:02:33;4.97;;;3.80;;
21943;SDS011;11136;48.778;9.126;2023-06-26T09:05:01;7.15;;;3.97;;
21943;SDS011;11136;48.778;9.126;2023-06-26T09:07:28;4.93;;;4.10;;
21943;SDS011;11136;48.778;9.126;2023-06-26T09:09:54;7.20;;;4.20;;
21943;SDS011;11136;48.778;9.126;2023-06-26T09:12:20;9.25;;;4.18;;
21943;SDS011;11136;48.778;9.126;2023-06-26T09:14:45;5.35;;;4.32;;
21943;SDS011;11136;48.778;9.126;2023-06-26T09:17:12;5.53;;;3.63;;
21943;SDS011;11136;48.778;9.126;2023-06-26T09:19:38;5.32;;;4.22;;
21943;SDS011;11136;48.778;9.126;2023-06-26T09:22:04;6.53;;;3.63;;
21943;SDS011;11136;48.778;9.126;2023-06-26T09:24:35;7.15;;;4.55;;
21943;SDS011;11136;48.778;9.126;2023-06-26T09:27:01;6.28;;;4.47;;
21943;SDS011;11136;48.778;9.126;2023-06-26T09:29:27;27.80;;;4.80;;
21943;SDS011;11136;48.778;9.126;2023-06-26T09:31:55;7.10;;;4.78;;
21943;SDS011;11136;48.778;9.126;2023-06-26T09:34:21;6.13;;;4.30;;
21943;SDS011;11136;48.778;9.126;2023-06-26T09:36:47;11.13;;;4.53;;
21943;SDS011;11136;48.778;9.126;2023-06-26T09:39:14;4.78;;;4.25;;
21943;SDS011;11136;48.778;9.126;2023-06-26T09:41:43;5.45;;;4.57;;
21943;SDS011;11136;48.778;9.126;2023-06-26T09:44:10;5.82;;;4.43;;
21943;SDS011;11136;48.778;9.126;2023-06-26T09:46:38;7.78;;;4.25;;
21943;SDS011;11136;48.778;9.126;2023-06-26T09:49:07;4.82;;;4.32;;
21943;SDS011;11136;48.778;9.126;2023-06-26T09:51:36;8.82;;;5.07;;
21943;SDS011;11136;48.778;9.126;2023-06-26T09:54:02;8.93;;;4.93;;
21943;SDS011;11136;48.778;9.126;2023-06-26T09:56:29;5.60;;;4.47;;
21943;SDS011;11136;48.778;9.126;2023-06-26T09:58:56;12.23;;;4.78;;
21943;SDS011;11136;48.778;9.126;2023-06-26T10:01:26;4.90;;;4.40;;
21943;SDS011;11136;48.778;9.126;2023-06-26T10:03:53;8.18;;;4.72;;
21943;SDS011;11136;48.778;9.126;2023-06-26T10:06:19;6.45;;;4.82;;
21943;SDS011;11136;48.778;9.126;2023-06-26T10:08:58;8.05;;;4.55;;
21943;SDS011;11136;48.778;9.126;2023-06-26T10:11:28;6.57;;;4.55;;
21943;SDS011;11136;48.778;9.126;2023-06-26T10:14:01;7.72;;;4.45;;
21943;SDS011;11136;48.778;9.126;2023-06-26T10:16:29;5.53;;;4.30;;
21943;SDS011;11136;48.778;9.126;2023-06-26T10:18:58;8.02;;;4.55;;
21943;SDS011;11136;48.778;9.126;2023-06-26T10:21:27;7.90;;;4.57;;
21943;SDS011;11136;48.778;9.126;2023-06-26T10:23:56;8.38;;;5.30;;
21943;SDS011;11136;48.778;9.126;2023-06-26T10:26:22;6.60;;;4.78;;
21943;SDS011;11136;48.778;9.126;2023-06-26T10:28:49;10.43;;;6.28;;
21943;SDS011;11136;48.778;9.126;2023-06-26T10:31:18;7.57;;;5.78;;
21943;SDS011;11136;48.778;9.126;2023-06-26T10:33:48;6.30;;;5.32;;
21943;SDS011;11136;48.778;9.126;2023-06-26T10:36:15;10.45;;;5.50;;
21943;SDS011;11136;48.778;9.126;2023-06-26T10:38:48;6.35;;;5.07;;
21943;SDS011;11136;48.778;9.126;2023-06-26T10:41:19;6.10;;;5.45;;
21943;SDS011;11136;48.778;9.126;2023-06-26T10:43:50;16.10;;;5.55;;
21943;SDS011;11136;48.778;9.126;2023-06-26T10:46:32;12.68;;;5.35;;
21943;SDS011;11136;48.778;9.126;2023-06-26T10:49:18;6.93;;;5.75;;
21943;SDS011;11136;48.778;9.126;2023-06-26T10:51:49;7.43;;;5.15;;
21943;SDS011;11136;48.778;9.126;2023-06-26T10:54:16;7.70;;;5.55;;
21943;SDS011;11136;48.778;9.126;2023-06-26T10:56:46;7.25;;;5.65;;
21943;SDS011;11136;48.778;9.126;2023-06-26T10:59:16;7.07;;;5.13;;
21943;SDS011;11136;48.778;9.126;2023-06-26T11:01:44;7.43;;;5.07;;
21943;SDS011;11136;48.778;9.126;2023-06-26T11:04:35;8.43;;;5.07;;
21943;SDS011;11136;48.778;9.126;2023-06-26T11:07:14;11.32;;;5.55;;
21943;SDS011;11136;48.778;9.126;2023-06-26T11:10:07;7.90;;;5.38;;
21943;SDS011;11136;48.778;9.126;2023-06-26T11:12:37;8.63;;;5.15;;
21943;SDS011;11136;48.778;9.126;2023-06-26T11:15:10;13.27;;;6.03;;
21943;SDS011;11136;48.778;9.126;2023-06-26T11:17:38;6.65;;;5.25;;
21943;SDS011;11136;48.778;9.126;2023-06-26T11:20:08;8.75;;;5.68;;
21943;SDS011;11136;48.778;9.126;2023-06-26T11:22:39;7.45;;;5.57;;
21943;SDS011;11136;48.778;9.126;2023-06-26T11:25:08;7.63;;;5.38;;
21943;SDS011;11136;48.778;9.126;2023-06-26T11:27:38;10.73;;;6.03;;
21943;SDS011;11136;48.778;9.126;2023-06-26T11:32:31;9.10;;;5.32;;
21943;SDS011;11136;48.778;9.126;2023-06-26T11:34:58;7.85;;;6.13;;
21943;SDS011;11136;48.778;9.126;2023-06-26T11:37:25;10.15;;;5.78;;
21943;SDS011;11136;48.778;9.126;2023-06-26T11:39:51;6.72;;;4.95;;
21943;SDS011;11136;48.778;9.126;2023-06-26T11:42:17;9.98;;;6.07;;
21943;SDS011;11136;48.778;9.126;2023-06-26T11:44:44;6.43;;;5.40;;
21943;SDS011;11136;48.778;9.126;2023-06-26T11:47:14;9.23;;;5.82;;
21943;SDS011;11136;48.778;9.126;2023-06-26T11:49:43;8.18;;;5.55;;
21943;SDS011;11136;48.778;9.126;2023-06-26T11:52:09;7.22;;;4.95;;
21943;SDS011;11136;48.778;9.126;2023-06-26T11:54:35;9.10;;;5.90;;
21943;SDS011;11136;48.778;9.126;2023-06-26T11:57:01;7.68;;;5.35;;
21943;SDS011;11136;48.778;9.126;2023-06-26T11:59:36;11.63;;;5.32;;
21943;SDS011;11136;48.778;9.126;2023-06-26T12:02:09;10.43;;;4.93;;
21943;SDS011;11136;48.778;9.126;2023-06-26T12:04:38;14.82;;;5.55;;
21943;SDS011;11136;48.778;9.126;2023-06-26T12:07:06;10.82;;;5.10;;
21943;SDS011;11136;48.778;9.126;2023-06-26T12:09:34;8.40;;;4.78;;
21943;SDS011;11136;48.778;9.126;2023-06-26T12:12:08;15.02;;;5.30;;
21943;SDS011;11136;48.778;9.126;2023-06-26T12:14:34;10.07;;;5.78;;
21943;SDS011;11136;48.778;9.126;2023-06-26T12:17:09;5.80;;;4.97;;
21943;SDS011;11136;48.778;9.126;2023-06-26T12:19:37;10.73;;;5.32;;
21943;SDS011;11136;48.778;9.126;2023-06-26T12:22:07;6.47;;;5.80;;
21943;SDS011;11136;48.778;9.126;2023-06-26T12:24:33;7.70;;;5.10;;
21943;SDS011;11136;48.778;9.126;2023-06-26T12:27:02;7.10;;;4.45;;
21943;SDS011;11136;48.778;9.126;2023-06-26T12:29:32;7.72;;;5.47;;
21943;SDS011;11136;48.778;9.126;2023-06-26T12:31:59;6.97;;;4.88;;
21943;SDS011;11136;48.778;9.126;2023-06-26T12:34:32;7.60;;;5.70;;
21943;SDS011;11136;48.778;9.126;2023-06-26T12:37:05;10.43;;;5.47;;
21943;SDS011;11136;48.778;9.126;2023-06-26T12:42:41;5.75;;;4.43;;
21943;SDS011;11136;48.778;9.126;2023-06-26T12:45:10;6.25;;;5.20;;
21943;SDS011;11136;48.778;9.126;2023-06-26T12:47:36;7.35;;;5.15;;
21943;SDS011;11136;48.778;9.126;2023-06-26T12:50:06;8.20;;;4.97;;
21943;SDS011;11136;48.778;9.126;2023-06-26T12:52:33;8.17;;;5.73;;
21943;SDS011;11136;48.778;9.126;2023-06-26T12:54:58;5.53;;;4.80;;
21943;SDS011;11136;48.778;9.126;2023-06-26T12:57:24;10.68;;;5.18;;
21943;SDS011;11136;48.778;9.126;2023-06-26T12:59:50;6.00;;;5.15;;
21943;SDS011;11136;48.778;9.126;2023-06-26T13:02:16;9.90;;;5.40;;
21943;SDS011;11136;48.778;9.126;2023-06-26T13:04:41;10.30;;;5.43;;
21943;SDS011;11136;48.778;9.126;2023-06-26T13:07:09;6.50;;;5.13;;
21943;SDS011;11136;48.778;9.126;2023-06-26T13:09:35;6.05;;;4.93;;
21943;SDS011;11136;48.778;9.126;2023-06-26T13:12:02;13.27;;;6.40;;
21943;SDS011;11136;48.778;9.126;2023-06-26T13:14:31;10.80;;;5.37;;
21943;SDS011;11136;48.778;9.126;2023-06-26T13:16:57;8.68;;;5.13;;
21943;SDS011;11136;48.778;9.126;2023-06-26T13:19:23;11.57;;;5.22;;
21943;SDS011;11136;48.778;9.126;2023-06-26T13:21:49;6.35;;;4.72;;
21943;SDS011;11136;48.778;9.126;2023-06-26T13:24:14;6.88;;;4.90;;
21943;SDS011;11136;48.778;9.126;2023-06-26T13:26:41;5.95;;;4.53;;
21943;SDS011;11136;48.778;9.126;2023-06-26T13:29:06;6.85;;;4.72;;
21943;SDS011;11136;48.778;9.126;2023-06-26T13:31:32;5.72;;;4.55;;
21943;SDS011;11136;48.778;9.126;2023-06-26T13:33:58;7.28;;;5.20;;
21943;SDS011;11136;48.778;9.126;2023-06-26T13:36:24;5.13;;;4.35;;
21943;SDS011;11136;48.778;9.126;2023-06-26T13:38:51;4.78;;;4.15;;
21943;SDS011;11136;48.778;9.126;2023-06-26T13:41:21;6.80;;;4.40;;
21943;SDS011;11136;48.778;9.126;2023-06-26T13:43:47;7.22;;;4.63;;
21943;SDS011;11136;48.778;9.126;2023-06-26T13:46:13;7.80;;;4.72;;
21943;SDS011;11136;48.778;9.126;2023-06-26T13:48:39;7.32;;;4.40;;
21943;SDS011;11136;48.778;9.126;2023-06-26T13:51:05;6.40;;;4.45;;
21943;SDS011;11136;48.778;9.126;2023-06-26T13:53:31;9.63;;;4.55;;
21943;SDS011;11136;48.778;9.126;2023-06-26T13:55:56;6.15;;;4.40;;
21943;SDS011;11136;48.778;9.126;2023-06-26T13:58:22;5.20;;;4.22;;
21943;SDS011;11136;48.778;9.126;2023-06-26T14:00:51;8.57;;;4.05;;
21943;SDS011;11136;48.778;9.126;2023-06-26T14:03:20;4.38;;;3.75;;
21943;SDS011;11136;48.778;9.126;2023-06-26T14:05:46;5.35;;;3.72;;
21943;SDS011;11136;48.778;9.126;2023-06-26T14:08:12;4.97;;;3.90;;
21943;SDS011;11136;48.778;9.126;2023-06-26T14:10:38;9.20;;;4.10;;
21943;SDS011;11136;48.778;9.126;2023-06-26T14:13:04;6.32;;;4.32;;
21943;SDS011;11136;48.778;9.126;2023-06-26T14:15:30;6.13;;;3.80;;
21943;SDS011;11136;48.778;9.126;2023-06-26T14:17:56;4.85;;;3.63;;
21943;SDS011;11136;48.778;9.126;2023-06-26T14:20:21;7.38;;;3.40;;
21943;SDS011;11136;48.778;9.126;2023-06-26T14:22:47;4.53;;;2.78;;
21943;SDS011;11136;48.778;9.126;2023-06-26T14:25:14;5.18;;;3.72;;
21943;SDS011;11136;48.778;9.126;2023-06-26T14:27:41;4.95;;;3.72;;
21943;SDS011;11136;48.778;9.126;2023-06-26T14:30:07;6.18;;;3.38;;
21943;SDS011;11136;48.778;9.126;2023-06-26T14:32:34;3.75;;;2.92;;
21943;SDS011;11136;48.778;9.126;2023-06-26T14:35:00;6.13;;;3.45;;
21943;SDS011;11136;48.778;9.126;2023-06-26T14:37:26;4.03;;;2.70;;
21943;SDS011;11136;48.778;9.126;2023-06-26T14:39:54;10.20;;;3.35;;
21943;SDS011;11136;48.778;9.126;2023-06-26T14:42:20;4.22;;;2.38;;
21943;SDS011;11136;48.778;9.126;2023-06-26T14:44:46;3.53;;;3.00;;
21943;SDS011;11136;48.778;9.126;2023-06-26T14:47:16;4.38;;;2.85;;
21943;SDS011;11136;48.778;9.126;2023-06-26T14:49:42;2.78;;;2.58;;
21943;SDS011;11136;48.778;9.126;2023-06-26T14:52:08;5.57;;;3.08;;
21943;SDS011;11136;48.778;9.126;2023-06-26T14:54:34;5.25;;;3.63;;
21943;SDS011;11136;48.778;9.126;2023-06-26T14:59:32;3.45;;;2.90;;
21943;SDS011;11136;48.778;9.126;2023-06-26T15:01:58;7.45;;;2.85;;
21943;SDS011;11136;48.778;9.126;2023-06-26T15:04:24;4.05;;;2.80;;